Time;durP1;ratioP1;P1;durP2;ratioP2;P2;SDS_P1;SDS_P2;PMS_P1;PMS_P2;Temp;Humidity;BMP_temperature;BMP_pressure;BME280_temperature;BME280_humidity;BME280_pressure;Samples;Min_cycle;Max_cycle;Signal;HPM_P1;HPM_P2
2022/03/06 00:01:04;;;;;;;21.60;7.93;;;;;;;-1.67;100.00;99567.09;4370125;32;20464;-81
2022/03/06 00:03:31;;;;;;;18.08;6.45;;;;;;;-1.76;100.00;99549.56;4355731;32;20369;-81
2022/03/06 00:05:58;;;;;;;22.30;7.47;;;;;;;-1.77;100.00;99556.66;4342643;32;20330;-81
2022/03/06 00:08:24;;;;;;;20.17;7.35;;;;;;;-2.05;100.00;99511.13;4361837;32;20073;-81
2022/03/06 00:10:51;;;;;;;20.35;7.68;;;;;;;-1.83;100.00;99554.66;4360725;32;20171;-81
2022/03/06 00:13:18;;;;;;;22.27;6.90;;;;;;;-1.75;100.00;99561.78;4361062;32;20350;-81
2022/03/06 00:15:44;;;;;;;14.50;6.37;;;;;;;-1.68;100.00;99560.16;4353889;32;20047;-81
2022/03/06 00:18:11;;;;;;;15.15;6.20;;;;;;;-1.69;100.00;99563.78;4342478;32;20061;-82
2022/03/06 00:20:37;;;;;;;20.42;7.62;;;;;;;-1.77;100.00;99542.63;4366184;32;20031;-81
2022/03/06 00:23:05;;;;;;;22.77;8.93;;;;;;;-1.75;100.00;99548.59;4360396;32;20095;-81
2022/03/06 00:25:32;;;;;;;20.73;6.65;;;;;;;-1.74;100.00;99542.31;4356085;32;20341;-81
2022/03/06 00:27:58;;;;;;;18.12;7.65;;;;;;;-1.64;100.00;99553.59;4342623;32;20028;-81
2022/03/06 00:30:25;;;;;;;17.75;6.65;;;;;;;-1.84;100.00;99545.88;4354379;32;20381;-81
2022/03/06 00:32:52;;;;;;;14.70;5.65;;;;;;;-1.88;100.00;99560.41;4340836;33;20136;-79
2022/03/06 00:35:18;;;;;;;19.67;6.18;;;;;;;-1.89;100.00;99564.00;4341378;32;20451;-81
2022/03/06 00:37:45;;;;;;;14.60;5.87;;;;;;;-2.24;100.00;99507.72;4355277;32;20388;-80
2022/03/06 00:40:12;;;;;;;16.05;5.53;;;;;;;-2.70;100.00;99433.25;4355191;32;20058;-80
2022/03/06 00:42:39;;;;;;;12.57;5.47;;;;;;;-2.01;100.00;99549.41;4339848;33;20373;-81
2022/03/06 00:45:06;;;;;;;10.63;6.00;;;;;;;-1.92;100.00;99560.88;4343092;33;20877;-80
2022/03/06 00:47:33;;;;;;;14.68;5.37;;;;;;;-1.96;100.00;99544.50;4356630;32;20053;-80
2022/03/06 00:50:00;;;;;;;16.37;5.45;;;;;;;-2.05;100.00;99524.34;4357772;33;20456;-80
2022/03/06 00:52:27;;;;;;;12.80;4.57;;;;;;;-1.96;100.00;99541.88;4360333;33;20107;-80
2022/03/06 00:54:53;;;;;;;13.57;5.78;;;;;;;-1.92;100.00;99558.22;4360708;33;20157;-80
2022/03/06 00:57:20;;;;;;;13.80;5.07;;;;;;;-2.32;100.00;99494.47;4342781;33;20069;-80
2022/03/06 00:59:46;;;;;;;16.33;6.57;;;;;;;-2.27;100.00;99494.84;4341990;33;20058;-81
2022/03/06 01:02:19;;;;;;;17.67;5.60;;;;;;;-2.25;100.00;99506.09;4342936;33;20454;-80
2022/03/06 01:04:45;;;;;;;17.83;6.18;;;;;;;-1.91;100.00;99559.87;4368026;32;20049;-80
2022/03/06 01:07:12;;;;;;;17.75;5.47;;;;;;;-2.26;100.00;99493.03;4370814;32;20697;-81
2022/03/06 01:09:39;;;;;;;13.62;4.57;;;;;;;-2.20;100.00;99501.16;4373836;32;20354;-81
2022/03/06 01:12:06;;;;;;;13.77;4.50;;;;;;;-1.90;100.00;99535.13;4372006;32;20075;-81
2022/03/06 01:14:32;;;;;;;8.80;4.30;;;;;;;-1.87;100.00;99546.22;4360110;32;20066;-80
2022/03/06 01:16:59;;;;;;;8.95;4.70;;;;;;;-2.18;100.00;99487.00;4371802;32;20353;-81
2022/03/06 01:19:25;;;;;;;13.13;4.80;;;;;;;-1.92;100.00;99537.91;4371919;32;20032;-81
2022/03/06 01:21:52;;;;;;;12.13;4.20;;;;;;;-2.10;100.00;99508.16;4372385;32;20087;-81
2022/03/06 01:24:18;;;;;;;8.18;4.00;;;;;;;-2.15;100.00;99489.28;4371881;32;20061;-81
2022/03/06 01:26:45;;;;;;;6.70;3.70;;;;;;;-2.16;100.00;99483.19;4369150;32;20093;-80
2022/03/06 01:29:13;;;;;;;8.55;3.85;;;;;;;-2.16;100.00;99483.19;4362302;32;20459;-80
2022/03/06 01:31:39;;;;;;;6.62;3.85;;;;;;;-2.40;100.00;99454.88;4372554;32;20050;-79
2022/03/06 01:34:06;;;;;;;9.80;3.70;;;;;;;-1.89;100.00;99539.44;4358857;32;20372;-79
2022/03/06 01:36:33;;;;;;;9.35;4.15;;;;;;;-1.90;100.00;99538.63;4372061;32;20061;-80
2022/03/06 01:38:59;;;;;;;7.70;4.30;;;;;;;-2.36;100.00;99472.06;4357561;32;20031;-80
2022/03/06 01:41:26;;;;;;;8.73;4.28;;;;;;;-1.99;100.00;99530.78;4371116;32;20431;-80
2022/03/06 01:43:53;;;;;;;9.32;3.78;;;;;;;-2.31;100.00;99475.03;4372182;32;20035;-80
2022/03/06 01:46:20;;;;;;;7.85;4.07;;;;;;;-2.34;100.00;99474.53;4358085;32;20061;-80
2022/03/06 01:48:53;;;;;;;4.28;3.37;;;;;;;-2.34;100.00;99459.53;4370117;32;20058;-79
2022/03/06 01:51:19;;;;;;;11.63;3.72;;;;;;;-2.02;100.00;99521.37;4357803;32;20031;-80
2022/03/06 01:53:46;;;;;;;9.80;3.22;;;;;;;-2.03;100.00;99519.72;4359528;32;20337;-80
2022/03/06 01:56:14;;;;;;;6.65;3.62;;;;;;;-2.24;100.00;99480.50;4359263;32;20356;-80
2022/03/06 01:58:41;;;;;;;8.35;3.75;;;;;;;-2.34;100.00;99470.06;4371952;32;20434;-80
2022/03/06 02:01:08;;;;;;;7.95;3.50;;;;;;;-1.91;100.00;99528.22;4356459;32;20020;-80
2022/03/06 02:03:35;;;;;;;12.23;3.37;;;;;;;-1.92;100.00;99537.09;4371592;32;20078;-79
2022/03/06 02:06:04;;;;;;;11.85;3.72;;;;;;;-2.24;100.00;99476.06;4371693;32;20057;-78
2022/03/06 02:08:30;;;;;;;5.57;3.15;;;;;;;-1.98;100.00;99522.72;4357047;32;20028;-80
2022/03/06 02:10:57;;;;;;;10.07;3.70;;;;;;;-2.21;100.00;99491.56;4358397;32;20027;-80
2022/03/06 02:13:25;;;;;;;9.27;3.50;;;;;;;-2.25;100.00;99490.25;4356849;32;20135;-79
2022/03/06 02:15:52;;;;;;;7.70;3.15;;;;;;;-2.11;100.00;99517.84;4371701;32;20453;-78
2022/03/06 02:18:19;;;;;;;6.72;3.10;;;;;;;-1.99;100.00;99526.34;4372191;32;20035;-79
2022/03/06 02:20:47;;;;;;;6.05;3.28;;;;;;;-2.26;100.00;99471.94;4371770;32;20098;-79
2022/03/06 02:23:14;;;;;;;10.85;3.35;;;;;;;-2.11;100.00;99495.94;4370242;32;20031;-79
2022/03/06 02:25:40;;;;;;;6.10;2.67;;;;;;;-1.95;100.00;99532.97;4357030;32;20035;-79
2022/03/06 02:28:09;;;;;;;5.40;3.15;;;;;;;-2.05;100.00;99500.59;4371746;32;20459;-80
2022/03/06 02:30:40;;;;;;;9.45;3.28;;;;;;;-2.01;100.00;99500.13;4371264;32;20688;-79
2022/03/06 02:33:10;;;;;;;4.68;2.67;;;;;;;-2.20;100.00;99474.78;4369544;32;20053;-79
2022/03/06 02:35:37;;;;;;;7.00;3.50;;;;;;;-2.02;100.00;99510.81;4372156;32;20109;-80
2022/03/06 02:38:05;;;;;;;4.82;2.65;;;;;;;-2.09;100.00;99512.41;4359066;32;20036;-79
2022/03/06 02:40:37;;;;;;;9.80;3.08;;;;;;;-2.44;100.00;99466.69;4370466;32;20032;-79
2022/03/06 02:43:05;;;;;;;6.53;2.72;;;;;;;-2.39;100.00;99465.25;4368812;32;20065;-80
2022/03/06 02:45:32;;;;;;;12.73;2.78;;;;;;;-2.09;100.00;99515.06;4361812;32;20062;-80
2022/03/06 02:47:59;;;;;;;4.68;2.70;;;;;;;-2.53;100.00;99443.91;4372086;32;20200;-80
2022/03/06 02:50:29;;;;;;;4.45;2.50;;;;;;;-2.51;100.00;99452.50;4371609;32;20105;-80
2022/03/06 02:53:06;;;;;;;11.05;3.35;;;;;;;-2.48;100.00;99457.47;4370164;32;20056;-80
2022/03/06 02:55:33;;;;;;;12.52;2.70;;;;;;;-2.16;100.00;99519.31;4369275;32;20412;-79
2022/03/06 02:58:00;;;;;;;9.77;2.45;;;;;;;-2.50;100.00;99454.16;4355173;32;20061;-79
2022/03/06 03:00:27;;;;;;;7.70;3.17;;;;;;;-2.17;100.00;99518.50;4355729;32;20035;-80
2022/03/06 03:02:54;;;;;;;8.77;2.37;;;;;;;-2.18;100.00;99510.75;4356740;32;20672;-79
2022/03/06 03:05:21;;;;;;;4.93;2.20;;;;;;;-2.27;100.00;99497.47;4371156;32;20369;-79
2022/03/06 03:07:54;;;;;;;7.12;3.15;;;;;;;-2.59;100.00;99448.81;4358980;32;20047;-79
2022/03/06 03:10:23;;;;;;;7.53;2.95;;;;;;;-2.22;100.00;99503.13;4370260;32;20047;-81
2022/03/06 03:12:50;;;;;;;6.43;2.95;;;;;;;-2.53;100.00;99465.81;4368763;32;20360;-80
2022/03/06 03:15:18;;;;;;;5.12;2.80;;;;;;;-2.15;100.00;99521.81;4357339;32;20064;-80
2022/03/06 03:17:45;;;;;;;5.95;2.72;;;;;;;-2.51;100.00;99457.75;4370938;32;20410;-80
2022/03/06 03:20:13;;;;;;;5.87;2.87;;;;;;;-2.44;100.00;99469.34;4370706;32;20040;-80
2022/03/06 03:22:39;;;;;;;6.10;2.78;;;;;;;-2.23;100.00;99504.09;4337569;33;20066;-80
2022/03/06 03:25:08;;;;;;;11.15;3.72;;;;;;;-2.11;100.00;99517.03;4336253;33;20079;-80
2022/03/06 03:27:36;;;;;;;24.20;7.87;;;;;;;-2.18;100.00;99500.19;4324822;33;20074;-80
2022/03/06 03:30:05;;;;;;;6.62;3.50;;;;;;;-2.19;100.00;99496.69;4323716;33;20044;-80
2022/03/06 03:32:32;;;;;;;8.02;2.58;;;;;;;-2.30;100.00;99484.59;4324211;33;20103;-79
2022/03/06 03:34:58;;;;;;;5.65;2.72;;;;;;;-2.44;100.00;99458.78;4329985;33;20027;-80
2022/03/06 03:37:25;;;;;;;6.95;3.20;;;;;;;-2.15;100.00;99505.13;4339237;33;20129;-79
2022/03/06 03:39:51;;;;;;;7.90;2.47;;;;;;;-2.22;100.00;99505.78;4338406;33;20061;-79
2022/03/06 03:42:18;;;;;;;8.55;3.50;;;;;;;-2.13;100.00;99513.72;4326479;33;20070;-79
2022/03/06 03:44:45;;;;;;;10.23;3.35;;;;;;;-2.20;100.00;99506.44;4334985;33;20107;-79
2022/03/06 03:47:11;;;;;;;7.32;2.97;;;;;;;-2.14;100.00;99517.34;4338561;33;20060;-78
2022/03/06 03:49:38;;;;;;;8.95;2.90;;;;;;;-2.11;100.00;99522.31;4337798;33;20039;-79
2022/03/06 03:52:05;;;;;;;5.00;2.92;;;;;;;-2.12;100.00;99520.66;4337662;33;20076;-79
2022/03/06 03:54:32;;;;;;;5.72;2.80;;;;;;;-2.44;100.00;99464.91;4365233;32;20065;-79
2022/03/06 03:56:58;;;;;;;6.07;3.22;;;;;;;-2.41;100.00;99484.84;4367633;32;20039;-80
2022/03/06 03:59:24;;;;;;;8.05;3.72;;;;;;;-2.31;100.00;99484.75;4369783;32;20105;-77
2022/03/06 04:01:52;;;;;;;7.10;2.80;;;;;;;-2.46;100.00;99460.75;4368886;32;20069;-78
2022/03/06 04:04:19;;;;;;;9.00;2.97;;;;;;;-2.18;100.00;99516.84;4355384;32;20438;-79
2022/03/06 04:06:46;;;;;;;8.63;3.28;;;;;;;-2.18;100.00;99518.66;4368673;32;20520;-79
2022/03/06 04:09:12;;;;;;;5.05;3.35;;;;;;;-2.13;100.00;99519.00;4354383;32;20035;-79
2022/03/06 04:11:39;;;;;;;8.43;3.10;;;;;;;-2.51;100.00;99455.94;4357093;32;20093;-78
2022/03/06 04:14:06;;;;;;;4.57;2.50;;;;;;;-2.14;100.00;99518.16;4370375;32;20448;-79
2022/03/06 04:16:33;;;;;;;5.70;3.12;;;;;;;-2.18;100.00;99521.28;4353762;32;20064;-79
2022/03/06 04:18:59;;;;;;;10.45;3.28;;;;;;;-2.49;100.00;99467.19;4339500;33;20073;-79
2022/03/06 04:21:26;;;;;;;9.80;3.47;;;;;;;-2.23;100.00;99512.03;4362807;32;20116;-79
2022/03/06 04:23:52;;;;;;;5.93;2.75;;;;;;;-2.09;100.00;99528.25;4356551;32;20081;-80
2022/03/06 04:26:19;;;;;;;7.55;3.70;;;;;;;-2.35;100.00;99489.50;4355323;32;20043;-79
2022/03/06 04:28:45;;;;;;;6.70;3.80;;;;;;;-2.18;100.00;99516.03;4355786;32;20527;-81
2022/03/06 04:31:12;;;;;;;7.57;3.45;;;;;;;-2.09;100.00;99522.97;4368128;32;20044;-80
2022/03/06 04:33:39;;;;;;;6.32;2.97;;;;;;;-2.10;100.00;99523.97;4371031;32;20054;-80
2022/03/06 04:36:05;;;;;;;7.05;3.78;;;;;;;-2.40;100.00;99476.78;4368775;32;20108;-80
2022/03/06 04:38:32;;;;;;;8.23;3.62;;;;;;;-2.01;100.00;99528.28;4369861;32;20038;-80
2022/03/06 04:40:59;;;;;;;6.43;2.72;;;;;;;-2.15;100.00;99505.13;4376177;32;20117;-79
2022/03/06 04:43:25;;;;;;;3.40;2.10;;;;;;;-2.22;100.00;99511.03;4382442;32;20103;-80
2022/03/06 04:45:52;;;;;;;2.90;1.75;;;;;;;-2.46;100.00;99468.66;4381047;32;20138;-81
2022/03/06 04:48:18;;;;;;;2.37;2.03;;;;;;;-2.48;100.00;99473.28;4356943;32;20135;-80
2022/03/06 04:50:52;;;;;;;5.28;2.33;;;;;;;-2.14;100.00;99523.44;4369526;32;20069;-80
2022/03/06 04:53:18;;;;;;;7.37;2.97;;;;;;;-2.16;100.00;99514.03;4355149;32;20065;-79
2022/03/06 04:55:45;;;;;;;6.93;2.83;;;;;;;-2.12;100.00;99526.78;4366181;32;20039;-80
2022/03/06 04:58:11;;;;;;;11.07;4.53;;;;;;;-2.21;100.00;99511.88;4353605;33;20066;-79
2022/03/06 05:00:38;;;;;;;14.20;5.60;;;;;;;-2.20;100.00;99514.34;4360529;32;20051;-81
2022/03/06 05:03:04;;;;;;;8.00;4.15;;;;;;;-2.64;100.00;99459.00;4355791;32;20039;-80
2022/03/06 05:05:31;;;;;;;8.60;3.25;;;;;;;-2.57;100.00;99460.03;4355802;32;20065;-80
2022/03/06 05:07:58;;;;;;;4.40;2.30;;;;;;;-2.18;100.00;99518.66;4352419;32;20065;-80
2022/03/06 05:10:25;;;;;;;5.57;3.15;;;;;;;-2.47;100.00;99467.84;4368351;32;20109;-80
2022/03/06 05:12:51;;;;;;;5.97;2.92;;;;;;;-2.13;100.00;99525.09;4354988;32;20062;-79
2022/03/06 05:15:18;;;;;;;10.15;3.60;;;;;;;-2.53;100.00;99457.09;4368010;32;20043;-80
2022/03/06 05:17:45;;;;;;;3.45;2.30;;;;;;;-2.43;100.00;99465.72;4368618;32;20043;-79
2022/03/06 05:20:12;;;;;;;5.03;2.47;;;;;;;-2.45;100.00;99467.69;4365846;32;20328;-79
2022/03/06 05:22:40;;;;;;;10.52;2.95;;;;;;;-2.44;100.00;99458.78;4356095;32;20052;-80
2022/03/06 05:25:08;;;;;;;6.55;3.22;;;;;;;-2.14;100.00;99512.06;4368737;32;20456;-80
2022/03/06 05:27:35;;;;;;;11.23;2.42;;;;;;;-2.11;100.00;99522.31;4367617;32;20040;-80
2022/03/06 05:30:04;;;;;;;5.65;2.72;;;;;;;-2.54;100.00;99450.16;4368631;32;20460;-80
2022/03/06 05:32:30;;;;;;;3.75;2.75;;;;;;;-2.20;100.00;99518.81;4353599;32;20365;-79
2022/03/06 05:34:57;;;;;;;8.80;3.12;;;;;;;-2.53;100.00;99465.00;4354019;32;20043;-80
2022/03/06 05:37:23;;;;;;;9.07;3.72;;;;;;;-2.54;100.00;99466.81;4368846;32;20117;-78
2022/03/06 05:39:50;;;;;;;6.07;3.83;;;;;;;-2.39;100.00;99496.09;4355705;32;20057;-79
2022/03/06 05:42:17;;;;;;;8.40;3.75;;;;;;;-2.50;100.00;99469.97;4353640;32;20058;-80
2022/03/06 05:44:43;;;;;;;5.28;2.65;;;;;;;-2.34;100.00;99491.19;4366584;32;20055;-79
2022/03/06 05:47:10;;;;;;;7.32;3.67;;;;;;;-2.51;100.00;99463.03;4352703;33;20159;-81
2022/03/06 05:49:36;;;;;;;4.50;2.92;;;;;;;-2.37;100.00;99491.50;4353244;33;20445;-81
2022/03/06 05:52:04;;;;;;;8.45;3.25;;;;;;;-2.37;100.00;99488.84;4352467;33;20040;-80
2022/03/06 05:54:30;;;;;;;12.82;3.58;;;;;;;-2.24;100.00;99510.34;4359673;32;20043;-78
2022/03/06 05:56:57;;;;;;;7.90;3.47;;;;;;;-2.20;100.00;99514.34;4371993;32;21512;-80
2022/03/06 05:59:24;;;;;;;7.15;3.45;;;;;;;-2.20;100.00;99510.91;4362653;32;20069;-78
2022/03/06 06:01:51;;;;;;;5.07;2.83;;;;;;;-2.43;100.00;99481.53;4367572;32;20044;-77
2022/03/06 06:04:19;;;;;;;6.40;3.42;;;;;;;-2.22;100.00;99510.19;4370048;32;20051;-78
2022/03/06 06:06:45;;;;;;;5.72;3.40;;;;;;;-2.10;100.00;99511.59;4368437;32;20051;-77
2022/03/06 06:09:12;;;;;;;6.57;3.40;;;;;;;-2.37;100.00;99470.38;4370432;32;20438;-75
2022/03/06 06:11:38;;;;;;;7.35;2.92;;;;;;;-2.35;100.00;99467.59;4370490;32;20114;-76
2022/03/06 06:14:05;;;;;;;4.70;2.72;;;;;;;-2.05;100.00;99511.13;4367017;32;20160;-76
2022/03/06 06:16:32;;;;;;;4.40;2.92;;;;;;;-2.02;100.00;99516.91;4367855;32;20065;-75
2022/03/06 06:18:59;;;;;;;4.50;2.65;;;;;;;-2.23;100.00;99477.72;4369202;32;20051;-76
2022/03/06 06:21:26;;;;;;;8.23;3.28;;;;;;;-2.28;100.00;99468.59;4370104;32;20047;-76
2022/03/06 06:26:26;;;;;;;5.47;2.53;;;;;;;-1.99;100.00;99515.78;4369287;32;20487;-76
2022/03/06 06:28:56;;;;;;;3.37;2.65;;;;;;;-2.01;100.00;99515.94;4354505;32;20051;-77
2022/03/06 06:31:24;;;;;;;5.50;3.08;;;;;;;-1.94;100.00;99513.50;4354423;32;20451;-79
2022/03/06 06:33:51;;;;;;;7.72;2.92;;;;;;;-1.99;100.00;99518.44;4369953;32;20373;-78
2022/03/06 06:36:18;;;;;;;5.07;2.78;;;;;;;-1.96;100.00;99525.19;4363171;32;20218;-80
2022/03/06 06:38:44;;;;;;;4.95;2.28;;;;;;;-1.93;100.00;99520.44;4367922;32;20442;-77
2022/03/06 06:41:12;;;;;;;9.45;3.17;;;;;;;-1.90;100.00;99522.78;4368261;32;20452;-77
2022/03/06 06:43:41;;;;;;;5.45;2.28;;;;;;;-1.90;100.00;99519.28;4354260;32;20063;-78
2022/03/06 06:46:09;;;;;;;5.50;2.90;;;;;;;-1.87;100.00;99525.09;4354955;32;20065;-77
2022/03/06 06:48:38;;;;;;;4.18;2.67;;;;;;;-1.84;100.00;99524.75;4355380;32;20057;-78
2022/03/06 06:51:07;;;;;;;3.78;2.40;;;;;;;-1.84;100.00;99530.03;4365145;32;20065;-76
2022/03/06 06:53:34;;;;;;;8.25;3.45;;;;;;;-1.81;100.00;99528.09;4355537;32;20043;-77
2022/03/06 06:56:01;;;;;;;8.68;3.37;;;;;;;-2.09;100.00;99470.19;4368198;32;20077;-77
2022/03/06 06:58:28;;;;;;;7.20;4.60;;;;;;;-1.88;100.00;99523.44;4355483;32;20055;-78
2022/03/06 07:00:55;;;;;;;5.95;3.47;;;;;;;-2.22;100.00;99463.56;4365189;32;20039;-80
2022/03/06 07:03:22;;;;;;;10.07;4.87;;;;;;;-2.62;100.00;99412.19;4355311;32;20059;-77
2022/03/06 07:05:50;;;;;;;12.90;4.37;;;;;;;-1.83;100.00;99518.50;4354598;32;20479;-78
2022/03/06 07:08:18;;;;;;;7.15;3.90;;;;;;;-1.69;100.00;99526.81;4352586;32;20057;-78
2022/03/06 07:10:45;;;;;;;4.97;3.00;;;;;;;-1.93;100.00;99477.38;4367672;32;20040;-78
2022/03/06 07:13:12;;;;;;;6.70;3.60;;;;;;;-2.02;100.00;99479.16;4355622;32;20056;-86
2022/03/06 07:15:39;;;;;;;5.18;2.75;;;;;;;-2.12;100.00;99473.16;4357119;32;20027;-87
2022/03/06 07:18:06;;;;;;;7.97;3.72;;;;;;;-3.01;100.00;99340.66;4356810;32;20031;-76
2022/03/06 07:20:33;;;;;;;9.93;3.92;;;;;;;-2.40;100.00;99425.84;4355591;32;20050;-76
2022/03/06 07:23:00;;;;;;;9.80;3.80;;;;;;;-2.05;100.00;99468.91;4356116;32;20045;-76
2022/03/06 07:25:27;;;;;;;7.03;3.45;;;;;;;-1.63;100.00;99512.97;4353737;32;20031;-78
2022/03/06 07:27:54;;;;;;;13.57;4.20;;;;;;;-1.96;100.00;99480.31;4369239;32;20105;-75
2022/03/06 07:30:21;;;;;;;11.70;3.83;;;;;;;-1.63;100.00;99520.91;4353628;32;20054;-76
2022/03/06 07:32:53;;;;;;;12.15;4.28;;;;;;;-1.62;100.00;99524.38;4341572;33;20053;-75
2022/03/06 07:35:21;;;;;;;11.18;4.22;;;;;;;-1.60;100.00;99528.50;4340811;33;20041;-76
2022/03/06 07:37:49;;;;;;;6.70;3.55;;;;;;;-1.59;100.00;99516.97;4366969;32;20061;-76
2022/03/06 07:40:18;;;;;;;5.62;2.75;;;;;;;-1.53;100.00;99520.78;4353097;32;20070;-78
2022/03/06 07:42:45;;;;;;;15.10;2.67;;;;;;;-1.50;100.00;99521.31;4355824;32;20039;-75
2022/03/06 07:45:13;;;;;;;4.05;2.55;;;;;;;-1.42;100.00;99527.59;4352390;32;20081;-77
2022/03/06 07:47:41;;;;;;;3.20;2.85;;;;;;;-1.39;100.00;99516.69;4351395;32;20040;-77
2022/03/06 07:50:15;;;;;;;6.05;2.58;;;;;;;-1.39;100.00;99522.81;4368280;32;20060;-78
2022/03/06 07:52:43;;;;;;;3.22;2.22;;;;;;;-1.69;100.00;99468.72;4356244;32;20400;-75
2022/03/06 07:55:10;;;;;;;10.27;4.90;;;;;;;-1.36;100.00;99537.50;4354812;32;20077;-76
2022/03/06 07:57:37;;;;;;;3.40;2.47;;;;;;;-1.29;100.00;99538.53;4354369;32;20061;-78
2022/03/06 08:00:06;;;;;;;4.72;2.70;;;;;;;-1.18;100.00;99524.19;4368214;32;20112;-76
2022/03/06 08:02:37;;;;;;;4.80;2.43;;;;;;;-1.12;100.00;99524.38;4355754;32;20106;-75
2022/03/06 08:05:05;;;;;;;3.12;2.67;;;;;;;-1.13;100.00;99533.28;4355406;32;20120;-76
2022/03/06 08:07:33;;;;;;;16.08;5.03;;;;;;;-1.55;100.00;99449.63;4367673;32;20039;-76
2022/03/06 08:10:00;;;;;;;4.07;3.15;;;;;;;-1.22;100.00;99504.38;4369254;32;20043;-76
2022/03/06 08:12:27;;;;;;;7.37;3.28;;;;;;;-1.40;98.91;99465.69;4357769;32;20102;-76
2022/03/06 08:14:54;;;;;;;5.40;2.83;;;;;;;-1.32;99.40;99464.88;4369858;32;20043;-78
2022/03/06 08:17:21;;;;;;;4.97;3.10;;;;;;;-1.31;99.29;99461.22;4370634;32;20048;-77
2022/03/06 08:19:48;;;;;;;9.95;3.90;;;;;;;-1.19;98.75;99465.22;4367572;32;20467;-77
2022/03/06 08:22:14;;;;;;;7.65;3.75;;;;;;;-0.83;99.21;99503.75;4354315;32;20034;-77
2022/03/06 08:24:41;;;;;;;7.15;3.37;;;;;;;-0.77;97.36;99500.47;4369829;32;20048;-77
2022/03/06 08:27:08;;;;;;;5.05;3.17;;;;;;;-0.68;97.98;99511.88;4370578;32;20069;-79
2022/03/06 08:29:34;;;;;;;5.75;3.22;;;;;;;-0.48;98.75;99510.56;4369474;32;20088;-77
2022/03/06 08:32:01;;;;;;;9.10;3.03;;;;;;;-0.68;96.38;99462.44;4368768;32;20047;-79
2022/03/06 08:34:28;;;;;;;9.55;4.62;;;;;;;-0.91;93.78;99467.56;4354047;32;20039;-78
2022/03/06 08:36:54;;;;;;;7.28;3.65;;;;;;;-0.52;96.09;99514.50;4355598;32;20102;-76
2022/03/06 08:39:21;;;;;;;4.07;2.65;;;;;;;-0.81;95.59;99462.13;4370040;32;20064;-77
2022/03/06 08:41:48;;;;;;;7.40;3.85;;;;;;;-0.30;94.22;99514.81;4342092;32;20061;-76
2022/03/06 08:44:14;;;;;;;6.75;4.05;;;;;;;-0.14;95.30;99517.44;4368590;32;20077;-78
2022/03/06 08:46:41;;;;;;;8.48;4.25;;;;;;;-0.14;93.68;99513.97;4367529;32;20077;-76
2022/03/06 08:49:07;;;;;;;6.10;3.45;;;;;;;-0.25;93.38;99505.37;4368858;32;20047;-75
2022/03/06 08:51:35;;;;;;;8.00;3.95;;;;;;;-0.12;93.03;99510.16;4369475;32;20039;-76
2022/03/06 08:54:01;;;;;;;5.57;4.22;;;;;;;-0.52;90.69;99469.53;4356276;32;20082;-77
2022/03/06 08:56:28;;;;;;;4.60;3.85;;;;;;;-0.27;91.37;99502.09;4367529;32;20050;-79
2022/03/06 08:58:55;;;;;;;7.03;4.05;;;;;;;-0.22;91.47;99507.69;4368494;32;20048;-76
2022/03/06 09:01:22;;;;;;;8.35;4.20;;;;;;;-0.35;91.26;99466.87;4368310;32;20053;-77
2022/03/06 09:03:49;;;;;;;5.18;3.53;;;;;;;0.08;93.47;99515.06;4368182;32;20414;-76
2022/03/06 09:06:16;;;;;;;7.65;3.53;;;;;;;0.02;88.54;99515.75;4356529;32;20128;-77
2022/03/06 09:08:44;;;;;;;8.05;3.75;;;;;;;0.11;87.04;99504.16;4354039;32;20031;-78
2022/03/06 09:11:11;;;;;;;10.50;4.07;;;;;;;-0.45;86.11;99457.28;4370109;32;20060;-77
2022/03/06 09:13:37;;;;;;;8.57;5.25;;;;;;;-0.04;88.13;99511.97;4368657;32;20428;-76
2022/03/06 09:16:05;;;;;;;10.15;4.30;;;;;;;-0.53;88.25;99446.72;4368793;32;20035;-78
2022/03/06 09:18:32;;;;;;;7.47;4.05;;;;;;;-0.16;90.01;99487.69;4355435;32;20420;-81
2022/03/06 09:20:58;;;;;;;7.07;4.00;;;;;;;-0.24;88.12;99469.16;4355315;32;20369;-79
2022/03/06 09:23:25;;;;;;;7.47;3.90;;;;;;;0.17;90.40;99516.72;4368856;32;20102;-80
2022/03/06 09:25:52;;;;;;;9.23;3.95;;;;;;;0.25;88.56;99511.38;4354496;32;20061;-81
2022/03/06 09:28:18;;;;;;;7.50;4.32;;;;;;;0.24;87.73;99509.75;4364990;32;20049;-80
2022/03/06 09:30:45;;;;;;;8.45;5.05;;;;;;;0.33;87.77;99505.22;4358290;32;20051;-78
2022/03/06 09:33:12;;;;;;;9.77;4.80;;;;;;;0.11;86.23;99456.47;4355865;32;20035;-76
2022/03/06 09:35:39;;;;;;;9.60;5.03;;;;;;;0.44;85.74;99506.69;4371993;32;20970;-77
2022/03/06 09:38:05;;;;;;;11.10;5.95;;;;;;;-0.01;85.76;99458.69;4358640;32;20031;-76
2022/03/06 09:40:32;;;;;;;17.75;5.97;;;;;;;0.23;86.58;99501.97;4372349;32;20098;-77
2022/03/06 09:43:00;;;;;;;19.92;6.90;;;;;;;-0.15;85.58;99452.25;4373656;32;20069;-82
2022/03/06 09:45:33;;;;;;;14.38;5.20;;;;;;;0.26;86.72;99496.34;4358574;32;20418;-78
2022/03/06 09:48:01;;;;;;;15.02;4.40;;;;;;;0.08;84.93;99452.37;4373300;32;20069;-80
2022/03/06 09:50:27;;;;;;;8.05;4.30;;;;;;;-0.06;84.70;99456.53;4372179;32;20092;-83
2022/03/06 09:52:54;;;;;;;7.85;3.58;;;;;;;0.21;85.56;99478.31;4372322;32;20366;-84
2022/03/06 09:55:21;;;;;;;7.28;4.10;;;;;;;0.16;82.83;99496.50;4372015;32;20040;-84
2022/03/06 09:57:53;;;;;;;10.68;4.68;;;;;;;-0.01;84.10;99491.28;4372564;32;20046;-84
2022/03/06 10:00:20;;;;;;;11.07;4.18;;;;;;;-0.42;84.89;99454.31;4358670;32;20036;-84
2022/03/06 10:02:57;;;;;;;11.18;4.50;;;;;;;-0.13;86.02;99503.22;4372697;32;20047;-84
2022/03/06 10:05:39;;;;;;;7.72;4.40;;;;;;;-0.21;85.44;99484.69;4371942;32;20043;-83
2022/03/06 10:08:17;;;;;;;9.13;4.82;;;;;;;0.07;87.34;99502.84;4371119;32;20057;-84
2022/03/06 10:10:45;;;;;;;8.18;4.82;;;;;;;-0.09;86.60;99450.78;4371447;32;20315;-85
2022/03/06 10:13:31;;;;;;;12.32;5.62;;;;;;;-0.14;84.19;99459.22;4369003;32;20065;-83
2022/03/06 10:16:04;;;;;;;10.93;4.93;;;;;;;0.19;82.89;99506.75;4357013;32;20065;-84
2022/03/06 10:18:39;;;;;;;10.48;4.68;;;;;;;0.29;83.02;99507.41;4360906;32;20055;-85
2022/03/06 10:21:08;;;;;;;8.35;4.90;;;;;;;0.40;82.23;99508.00;4374189;32;20069;-83
2022/03/06 10:23:55;;;;;;;10.10;5.35;;;;;;;0.41;79.62;99499.06;4370524;32;20039;-84
2022/03/06 10:26:27;;;;;;;7.72;4.97;;;;;;;0.11;79.58;99445.88;4357680;32;20464;-83
2022/03/06 10:28:55;;;;;;;6.25;4.10;;;;;;;0.43;80.83;99497.91;4371626;32;20960;-85
2022/03/06 10:31:24;;;;;;;7.03;4.60;;;;;;;0.36;78.84;99497.75;4358949;32;20453;-84
2022/03/06 10:34:10;;;;;;;9.90;4.80;;;;;;;0.19;79.21;99474.97;4372549;32;20078;-84
2022/03/06 10:36:44;;;;;;;11.43;5.78;;;;;;;0.37;81.44;99485.34;4371657;32;20051;-86
2022/03/06 10:39:17;;;;;;;10.55;5.32;;;;;;;0.36;82.24;99444.78;4358111;32;20345;-86
2022/03/06 10:41:47;;;;;;;8.25;4.32;;;;;;;0.75;80.63;99489.97;4357634;32;20043;-87
2022/03/06 10:44:16;;;;;;;8.65;4.78;;;;;;;0.27;77.93;99429.94;4370075;32;20319;-84
2022/03/06 10:47:00;;;;;;;10.32;5.82;;;;;;;0.63;78.20;99482.41;4362397;32;20352;-85
2022/03/06 10:49:28;;;;;;;6.15;4.22;;;;;;;0.55;78.61;99429.44;4366273;32;20099;-84
2022/03/06 10:51:55;;;;;;;9.75;5.07;;;;;;;0.86;78.02;99471.00;4371732;32;20039;-83
2022/03/06 10:54:22;;;;;;;6.53;3.95;;;;;;;0.85;75.98;99469.38;4370565;32;20345;-85
2022/03/06 10:56:51;;;;;;;5.12;3.70;;;;;;;0.56;72.82;99427.63;4344065;32;20063;-84
2022/03/06 10:59:21;;;;;;;8.32;4.80;;;;;;;0.58;73.72;99468.84;4370863;32;20087;-85
2022/03/06 11:01:48;;;;;;;9.00;4.62;;;;;;;0.58;74.91;99458.25;4372313;32;20197;-86
2022/03/06 11:04:18;;;;;;;8.18;4.35;;;;;;;0.68;75.27;99466.78;4370289;32;20398;-85
2022/03/06 11:06:47;;;;;;;8.98;4.78;;;;;;;0.68;73.94;99464.16;4371309;32;20067;-86
2022/03/06 11:09:16;;;;;;;9.13;5.00;;;;;;;0.68;72.71;99464.16;4370972;32;20047;-85
2022/03/06 11:11:45;;;;;;;14.95;6.55;;;;;;;0.79;74.03;99464.75;4370170;32;20061;-83
2022/03/06 11:14:19;;;;;;;6.28;4.30;;;;;;;0.81;74.03;99454.81;4364112;32;20094;-85
2022/03/06 11:16:46;;;;;;;11.02;6.40;;;;;;;0.52;69.61;99411.25;4387618;32;20090;-88
2022/03/06 11:19:14;;;;;;;7.72;5.15;;;;;;;0.76;72.30;99449.22;4372978;32;20051;-87
2022/03/06 11:21:48;;;;;;;10.60;5.45;;;;;;;0.56;72.18;99404.63;4372750;32;20518;-87
2022/03/06 11:24:20;;;;;;;9.88;4.97;;;;;;;0.93;73.90;99449.94;4372529;32;20031;-87
2022/03/06 11:26:58;;;;;;;8.53;4.43;;;;;;;0.80;71.29;99447.84;4373479;32;20431;-85
2022/03/06 11:29:31;;;;;;;7.12;4.95;;;;;;;0.73;71.07;99439.75;4359191;32;20047;-87
2022/03/06 11:32:03;;;;;;;;;;;;;;;0.10;71.61;99396.59;4359349;32;20321;-85